createdAt,value
2019-02-12T00:01:15.776Z,0.60
2019-02-12T00:03:45.793Z,0.50
2019-02-12T00:06:15.671Z,0.43
2019-02-12T00:08:45.518Z,0.50
2019-02-12T00:11:15.314Z,0.70
2019-02-12T00:13:45.323Z,0.60
2019-02-12T00:16:15.427Z,0.60
2019-02-12T00:18:45.320Z,0.60
2019-02-12T00:21:15.355Z,0.30
2019-02-12T00:23:45.427Z,0.67
2019-02-12T00:26:15.318Z,0.43
2019-02-12T00:28:45.113Z,0.80
2019-02-12T00:31:15.229Z,0.67
2019-02-12T00:33:45.189Z,1.23
2019-02-12T00:36:17.348Z,0.60
2019-02-12T00:38:47.030Z,1.70
2019-02-12T00:41:16.704Z,0.53
2019-02-12T00:43:46.699Z,1.17
2019-02-12T00:46:16.554Z,0.70
2019-02-12T00:48:46.461Z,0.50
2019-02-12T00:51:17.858Z,0.50
2019-02-12T00:53:47.826Z,0.50
2019-02-12T00:56:17.707Z,0.47
2019-02-12T00:58:47.470Z,0.70
2019-02-12T01:01:17.166Z,0.50
2019-02-12T01:03:47.098Z,0.60
2019-02-12T01:06:16.737Z,0.63
2019-02-12T01:08:46.578Z,0.40
2019-02-12T01:11:16.588Z,0.60
2019-02-12T01:13:46.410Z,0.50
2019-02-12T01:16:16.209Z,0.70
2019-02-12T01:18:46.440Z,0.63
2019-02-12T01:21:16.276Z,0.60
2019-02-12T01:23:46.265Z,0.60
2019-02-12T01:26:15.909Z,0.70
2019-02-12T01:28:45.694Z,0.47
2019-02-12T01:31:15.609Z,0.67
2019-02-12T01:33:45.615Z,0.70
2019-02-12T01:36:18.409Z,0.40
2019-02-12T01:38:48.286Z,0.40
2019-02-12T01:41:17.853Z,0.40
2019-02-12T01:43:47.586Z,0.60
2019-02-12T01:46:17.550Z,0.40
2019-02-12T01:48:47.517Z,0.50
2019-02-12T01:51:17.175Z,0.50
2019-02-12T01:53:47.146Z,0.47
2019-02-12T01:56:16.911Z,0.70
2019-02-12T01:58:46.556Z,0.50
2019-02-12T02:01:16.525Z,0.50
2019-02-12T02:03:46.402Z,0.50
2019-02-12T02:06:16.187Z,0.50
2019-02-12T02:08:46.146Z,0.40
2019-02-12T02:11:16.114Z,0.40
2019-02-12T02:13:46.178Z,0.47
2019-02-12T02:16:16.069Z,0.87
2019-02-12T02:18:45.857Z,0.40
2019-02-12T02:21:15.584Z,0.40
2019-02-12T02:23:45.513Z,0.62
2019-02-12T02:26:15.324Z,0.73
2019-02-12T02:28:45.236Z,0.37
2019-02-12T02:31:16.189Z,0.53
2019-02-12T02:33:45.991Z,0.47
2019-02-12T02:36:16.092Z,0.40
2019-02-12T02:38:46.091Z,0.43
2019-02-12T02:41:15.951Z,0.50
2019-02-12T02:43:45.676Z,0.60
2019-02-12T02:46:15.524Z,0.60
2019-02-12T02:48:45.305Z,0.40
2019-02-12T02:51:15.255Z,0.60
2019-02-12T02:53:45.272Z,0.50
2019-02-12T02:56:15.128Z,0.40
2019-02-12T02:58:44.779Z,0.60
2019-02-12T03:01:14.610Z,0.30
2019-02-12T03:03:44.257Z,0.57
2019-02-12T03:06:14.079Z,0.40
2019-02-12T03:08:44.199Z,0.50
2019-02-12T03:11:14.197Z,0.40
2019-02-12T03:13:43.992Z,0.50
2019-02-12T03:16:13.761Z,0.47
2019-02-12T03:18:43.602Z,0.70
2019-02-12T03:21:13.428Z,0.50
2019-02-12T03:23:43.622Z,0.60
2019-02-12T03:26:13.487Z,0.50
2019-02-12T03:28:43.308Z,0.57
2019-02-12T03:31:13.072Z,0.77
2019-02-12T03:33:42.860Z,0.37
2019-02-12T03:36:12.715Z,0.50
2019-02-12T03:38:42.489Z,0.63
2019-02-12T03:41:12.299Z,0.70
2019-02-12T03:43:41.850Z,0.67
2019-02-12T03:46:11.630Z,0.70
2019-02-12T03:48:41.334Z,0.70
2019-02-12T03:51:12.013Z,0.90
2019-02-12T03:53:42.251Z,0.70
2019-02-12T03:56:12.048Z,0.50
2019-02-12T03:58:42.267Z,0.50
2019-02-12T04:01:11.968Z,0.70
2019-02-12T04:03:41.529Z,0.50
2019-02-12T04:06:11.459Z,5.93
2019-02-12T04:08:41.141Z,0.60
2019-02-12T04:11:11.049Z,0.83
2019-02-12T04:13:40.989Z,1.00
2019-02-12T04:16:10.566Z,0.40
2019-02-12T04:18:40.448Z,0.50
2019-02-12T04:21:10.180Z,0.50
2019-02-12T04:23:39.728Z,0.47
2019-02-12T04:26:09.622Z,0.60
2019-02-12T04:28:39.537Z,0.47
2019-02-12T04:31:09.303Z,0.40
2019-02-12T04:33:38.867Z,0.50
2019-02-12T04:36:08.865Z,0.50
2019-02-12T04:38:38.480Z,0.40
2019-02-12T04:41:08.123Z,0.60
2019-02-12T04:43:37.992Z,1.40
2019-02-12T04:46:07.838Z,0.75
2019-02-12T04:48:37.672Z,0.60
2019-02-12T04:51:07.361Z,1.10
2019-02-12T04:53:36.966Z,0.60
2019-02-12T04:56:06.671Z,0.40
2019-02-12T04:58:36.755Z,0.77
2019-02-12T05:01:06.377Z,1.50
2019-02-12T05:03:35.962Z,0.70
2019-02-12T05:06:05.778Z,1.13
2019-02-12T05:09:10.374Z,0.63
2019-02-12T05:11:40.341Z,0.70
2019-02-12T05:14:10.147Z,0.62
2019-02-12T05:16:39.757Z,1.10
2019-02-12T05:19:09.898Z,0.57
2019-02-12T05:21:39.469Z,0.50
2019-02-12T05:24:09.251Z,0.50
2019-02-12T05:26:39.059Z,0.53
2019-02-12T05:29:08.847Z,1.07
2019-02-12T05:31:38.550Z,0.47
2019-02-12T05:34:08.369Z,0.73
2019-02-12T05:36:38.045Z,1.40
2019-02-12T05:39:07.825Z,1.50
2019-02-12T05:41:37.566Z,1.03
2019-02-12T05:44:07.325Z,1.23
2019-02-12T05:46:37.144Z,0.80
2019-02-12T05:49:07.052Z,0.93
2019-02-12T05:51:36.779Z,0.77
2019-02-12T05:54:06.802Z,1.03
2019-02-12T05:56:36.624Z,2.33
2019-02-12T05:59:06.322Z,1.60
2019-02-12T06:01:36.388Z,0.98
2019-02-12T06:04:06.957Z,1.00
2019-02-12T06:06:36.587Z,1.03
2019-02-12T06:09:06.755Z,0.97
2019-02-12T06:11:36.548Z,1.50
2019-02-12T06:14:06.308Z,1.00
2019-02-12T06:16:36.017Z,1.07
2019-02-12T06:19:05.785Z,0.80
2019-02-12T06:21:35.518Z,0.80
2019-02-12T06:24:05.261Z,3.33
2019-02-12T06:26:37.805Z,1.00
2019-02-12T06:29:07.612Z,1.30
2019-02-12T06:31:37.449Z,1.00
2019-02-12T06:34:07.315Z,1.07
2019-02-12T06:36:36.801Z,1.40
2019-02-12T06:39:07.984Z,1.17
2019-02-12T06:41:37.632Z,1.33
2019-02-12T06:44:07.661Z,0.87
2019-02-12T06:46:37.373Z,2.60
2019-02-12T06:49:06.993Z,1.63
2019-02-12T06:51:36.590Z,2.60
2019-02-12T06:54:06.253Z,2.30
2019-02-12T06:56:35.929Z,3.30
2019-02-12T06:59:05.753Z,2.57
2019-02-12T07:01:35.670Z,1.40
2019-02-12T07:04:26.591Z,2.27
2019-02-12T07:07:36.673Z,2.93
2019-02-12T07:10:16.608Z,2.40
2019-02-12T07:13:17.737Z,1.67
2019-02-12T07:16:14.689Z,1.50
2019-02-12T07:19:17.108Z,2.77
2019-02-12T07:22:19.421Z,1.80
2019-02-12T07:25:36.585Z,2.87
2019-02-12T07:28:18.346Z,1.30
2019-02-12T07:31:46.981Z,1.63
2019-02-12T07:34:54.556Z,1.43
2019-02-12T07:38:09.555Z,1.67
2019-02-12T07:41:20.098Z,2.30
2019-02-12T07:44:23.769Z,2.07
2019-02-12T07:47:25.366Z,2.50
2019-02-12T07:50:16.116Z,2.67
2019-02-12T07:53:09.907Z,1.63
2019-02-12T07:56:20.317Z,3.95
2019-02-12T07:59:24.855Z,1.40
2019-02-12T08:02:48.216Z,1.23
2019-02-12T08:05:58.536Z,1.37
2019-02-12T08:09:07.351Z,1.20
2019-02-12T08:12:19.188Z,1.30
2019-02-12T08:15:02.646Z,0.87
2019-02-12T08:18:21.939Z,0.70
2019-02-12T08:21:16.523Z,2.80
2019-02-12T08:24:14.100Z,1.07
2019-02-12T08:27:39.849Z,3.07
2019-02-12T08:30:41.628Z,2.67
2019-02-12T08:33:46.754Z,3.17
2019-02-12T08:36:39.408Z,1.80
2019-02-12T08:39:27.803Z,1.13
2019-02-12T08:42:21.665Z,1.00
2019-02-12T08:45:39.427Z,0.87
2019-02-12T08:48:21.494Z,1.10
2019-02-12T08:51:19.324Z,1.60
2019-02-12T08:54:23.334Z,1.20
2019-02-12T08:57:08.352Z,0.70
2019-02-12T09:00:20.752Z,1.00
2019-02-12T09:03:34.550Z,0.90
2019-02-12T09:06:33.824Z,0.80
2019-02-12T09:09:39.089Z,1.10
2019-02-12T09:12:32.696Z,1.10
2019-02-12T09:15:19.316Z,1.17
2019-02-12T09:18:23.616Z,1.27
2019-02-12T09:21:27.922Z,1.03
2019-02-12T09:24:50.306Z,1.90
2019-02-12T09:27:27.227Z,1.00
2019-02-12T09:30:08.763Z,1.10
2019-02-12T09:33:11.577Z,1.83
2019-02-12T09:35:51.548Z,2.90
2019-02-12T09:38:49.210Z,2.00
2019-02-12T09:41:32.726Z,1.80
2019-02-12T09:44:48.896Z,1.63
2019-02-12T09:48:03.410Z,1.43
2019-02-12T09:51:22.729Z,1.67
2019-02-12T09:54:21.694Z,1.30
2019-02-12T09:57:26.280Z,1.00
2019-02-12T10:00:20.232Z,1.40
2019-02-12T10:03:25.303Z,1.20
2019-02-12T10:06:38.908Z,1.70
2019-02-12T10:09:55.255Z,1.00
2019-02-12T10:12:34.034Z,1.33
2019-02-12T10:15:43.360Z,2.20
2019-02-12T10:19:05.500Z,2.13
2019-02-12T10:22:00.825Z,1.67
2019-02-12T10:25:06.636Z,1.43
2019-02-12T10:28:26.209Z,1.20
2019-02-12T10:31:15.316Z,1.07
2019-02-12T10:33:45.607Z,1.23
2019-02-12T10:36:15.383Z,1.00
2019-02-12T10:38:47.755Z,1.20
2019-02-12T10:41:17.415Z,0.93
2019-02-12T10:43:46.962Z,3.20
2019-02-12T10:46:16.891Z,3.73
2019-02-12T10:48:46.445Z,1.10
2019-02-12T10:51:16.411Z,1.30
2019-02-12T10:53:46.451Z,1.10
2019-02-12T10:56:16.330Z,1.10
2019-02-12T10:58:46.142Z,0.60
2019-02-12T11:01:16.112Z,1.03
2019-02-12T11:03:46.097Z,0.80
2019-02-12T11:06:15.953Z,1.27
2019-02-12T11:08:46.278Z,1.80
2019-02-12T11:11:16.378Z,0.60
2019-02-12T11:13:46.381Z,0.80
2019-02-12T11:16:16.219Z,0.60
2019-02-12T11:18:46.086Z,1.17
2019-02-12T11:21:15.817Z,1.40
2019-02-12T11:23:45.605Z,2.03
2019-02-12T11:26:15.557Z,4.00
2019-02-12T11:28:45.425Z,1.40
2019-02-12T11:31:15.462Z,1.00
2019-02-12T11:33:45.407Z,1.80
2019-02-12T11:36:15.279Z,0.67
2019-02-12T11:38:45.195Z,1.33
2019-02-12T11:41:15.260Z,0.60
2019-02-12T11:43:45.397Z,3.10
2019-02-12T11:46:15.169Z,2.70
2019-02-12T11:48:45.326Z,0.60
2019-02-12T11:51:15.150Z,0.90
2019-02-12T11:53:45.063Z,0.67
2019-02-12T11:56:15.036Z,9.23
2019-02-12T11:58:45.067Z,0.70
2019-02-12T12:01:21.517Z,1.27
2019-02-12T12:03:51.296Z,0.40
2019-02-12T12:06:20.905Z,0.67
2019-02-12T12:08:50.667Z,0.43
2019-02-12T12:11:20.717Z,0.40
2019-02-12T12:13:50.497Z,0.73
2019-02-12T12:16:20.258Z,0.50
2019-02-12T12:18:49.960Z,0.50
2019-02-12T12:21:19.571Z,0.60
2019-02-12T12:23:49.573Z,0.80
2019-02-12T12:26:19.207Z,1.50
2019-02-12T12:28:48.964Z,0.70
2019-02-12T12:31:18.494Z,1.00
2019-02-12T12:33:48.272Z,0.60
2019-02-12T12:36:18.153Z,0.50
2019-02-12T12:38:47.833Z,0.70
2019-02-12T12:41:17.479Z,0.80
2019-02-12T12:43:47.371Z,0.60
2019-02-12T12:46:17.047Z,0.60
2019-02-12T12:48:46.743Z,0.77
2019-02-12T12:51:16.756Z,0.93
2019-02-12T12:53:46.453Z,0.67
2019-02-12T12:56:16.264Z,0.97
2019-02-12T12:58:46.420Z,1.30
2019-02-12T13:01:16.909Z,0.80
2019-02-12T13:03:46.582Z,0.70
2019-02-12T13:06:16.704Z,0.80
2019-02-12T13:08:46.451Z,0.47
2019-02-12T13:11:16.367Z,0.40
2019-02-12T13:13:47.921Z,1.27
2019-02-12T13:16:17.724Z,0.50
2019-02-12T13:18:47.571Z,0.60
2019-02-12T13:21:17.221Z,0.80
2019-02-12T13:23:46.867Z,0.60
2019-02-12T13:26:16.815Z,0.73
2019-02-12T13:28:46.544Z,2.23
2019-02-12T13:31:16.662Z,0.60
2019-02-12T13:33:46.589Z,0.70
2019-02-12T13:36:16.497Z,0.57
2019-02-12T13:38:46.518Z,0.60
2019-02-12T13:41:16.414Z,0.40
2019-02-12T13:43:46.338Z,1.10
2019-02-12T13:46:16.336Z,1.53
2019-02-12T13:48:46.591Z,0.37
2019-02-12T13:51:16.618Z,0.40
2019-02-12T13:53:46.702Z,0.47
2019-02-12T13:56:16.641Z,1.00
2019-02-12T13:58:46.559Z,0.43
2019-02-12T14:01:16.597Z,0.77
2019-02-12T14:03:46.597Z,1.00
2019-02-12T14:06:16.542Z,0.77
2019-02-12T14:08:46.506Z,1.07
2019-02-12T14:11:16.350Z,1.47
2019-02-12T14:13:48.465Z,2.10
2019-02-12T14:16:18.080Z,0.60
2019-02-12T14:18:47.910Z,0.80
2019-02-12T14:21:18.052Z,0.70
2019-02-12T14:23:47.644Z,1.87
2019-02-12T14:26:17.238Z,0.70
2019-02-12T14:28:47.134Z,0.90
2019-02-12T14:31:16.911Z,1.07
2019-02-12T14:33:46.745Z,0.73
2019-02-12T14:36:16.763Z,1.17
2019-02-12T14:38:46.594Z,1.80
2019-02-12T14:41:16.579Z,1.00
2019-02-12T14:43:46.635Z,0.90
2019-02-12T14:46:16.520Z,0.90
2019-02-12T14:48:46.637Z,1.70
2019-02-12T14:51:16.717Z,1.00
2019-02-12T14:53:46.514Z,1.00
2019-02-12T14:56:16.733Z,2.50
2019-02-12T14:58:46.712Z,1.27
2019-02-12T15:01:16.575Z,1.43
2019-02-12T15:03:47.006Z,1.60
2019-02-12T15:06:16.984Z,1.10
2019-02-12T15:08:46.611Z,1.13
2019-02-12T15:11:16.722Z,1.47
2019-02-12T15:13:46.581Z,1.40
2019-02-12T15:16:16.536Z,1.13
2019-02-12T15:18:47.694Z,1.40
2019-02-12T15:21:17.572Z,0.90
2019-02-12T15:23:47.566Z,1.00
2019-02-12T15:26:17.309Z,1.13
2019-02-12T15:28:46.984Z,1.40
2019-02-12T15:31:16.693Z,1.57
2019-02-12T15:33:46.512Z,1.60
2019-02-12T15:36:16.650Z,1.50
2019-02-12T15:38:46.661Z,1.43
2019-02-12T15:41:16.507Z,1.47
2019-02-12T15:43:46.523Z,5.47
2019-02-12T15:46:16.485Z,1.80
2019-02-12T15:48:46.268Z,1.97
2019-02-12T15:51:16.597Z,2.27
2019-02-12T15:53:46.667Z,1.50
2019-02-12T15:56:16.778Z,1.67
2019-02-12T15:58:46.429Z,2.03
2019-02-12T16:01:16.561Z,2.40
2019-02-12T16:03:46.532Z,1.60
2019-02-12T16:06:17.671Z,1.53
2019-02-12T16:08:48.035Z,2.10
2019-02-12T16:11:19.138Z,1.50
2019-02-12T16:13:49.449Z,11.37
2019-02-12T16:16:19.282Z,2.30
2019-02-12T16:18:48.931Z,4.87
2019-02-12T16:21:18.929Z,2.70
2019-02-12T16:23:48.581Z,1.57
2019-02-12T16:26:18.284Z,1.40
2019-02-12T16:28:48.237Z,1.40
2019-02-12T16:31:18.649Z,2.07
2019-02-12T16:33:48.508Z,1.40
2019-02-12T16:36:18.591Z,1.47
2019-02-12T16:38:48.992Z,1.70
2019-02-12T16:41:18.740Z,1.80
2019-02-12T16:43:48.626Z,1.73
2019-02-12T16:46:20.696Z,1.97
2019-02-12T16:48:50.501Z,1.20
2019-02-12T16:51:21.335Z,1.13
2019-02-12T16:53:51.142Z,1.20
2019-02-12T16:56:20.781Z,1.37
2019-02-12T16:58:50.586Z,1.50
2019-02-12T17:01:20.476Z,1.00
2019-02-12T17:03:50.112Z,1.20
2019-02-12T17:06:20.026Z,1.00
2019-02-12T17:08:49.638Z,1.60
2019-02-12T17:11:19.594Z,1.50
2019-02-12T17:13:52.106Z,1.27
2019-02-12T17:16:21.759Z,0.80
2019-02-12T17:19:10.312Z,1.20
2019-02-12T17:21:40.160Z,1.13
2019-02-12T17:24:10.325Z,0.90
2019-02-12T17:26:40.414Z,1.50
2019-02-12T17:29:10.345Z,4.90
2019-02-12T17:31:39.925Z,1.20
2019-02-12T17:34:09.862Z,2.13
2019-02-12T17:36:39.746Z,3.17
2019-02-12T17:39:09.518Z,1.10
2019-02-12T17:41:39.352Z,1.10
2019-02-12T17:44:09.174Z,1.43
2019-02-12T17:46:38.883Z,1.30
2019-02-12T17:49:08.661Z,1.50
2019-02-12T17:51:39.509Z,1.40
2019-02-12T17:54:09.684Z,2.00
2019-02-12T17:56:39.188Z,1.50
2019-02-12T17:59:09.032Z,1.57
2019-02-12T18:01:38.722Z,2.00
2019-02-12T18:04:08.587Z,1.77
2019-02-12T18:06:38.512Z,1.77
2019-02-12T18:09:08.796Z,1.70
2019-02-12T18:11:38.440Z,1.70
2019-02-12T18:14:08.492Z,1.83
2019-02-12T18:16:38.058Z,1.67
2019-02-12T18:19:07.775Z,1.83
2019-02-12T18:21:37.495Z,2.57
2019-02-12T18:24:07.514Z,1.93
2019-02-12T18:26:37.065Z,2.27
2019-02-12T18:29:06.913Z,1.80
2019-02-12T18:31:36.566Z,2.37
2019-02-12T18:34:06.301Z,1.90
2019-02-12T18:36:36.556Z,2.67
2019-02-12T18:39:07.623Z,6.83
2019-02-12T18:41:37.348Z,1.97
2019-02-12T18:44:06.960Z,2.53
2019-02-12T18:46:36.651Z,1.67
2019-02-12T18:49:06.589Z,2.20
2019-02-12T18:51:36.202Z,2.50
2019-02-12T18:54:05.919Z,3.30
2019-02-12T18:56:41.428Z,3.67
2019-02-12T18:59:07.230Z,2.93
2019-02-12T19:01:37.000Z,2.40
2019-02-12T19:04:06.855Z,2.20
2019-02-12T19:06:36.478Z,2.43
2019-02-12T19:09:12.868Z,2.57
2019-02-12T19:11:52.638Z,2.27
2019-02-12T19:14:14.848Z,2.50
2019-02-12T19:16:44.545Z,2.10
2019-02-12T19:19:14.194Z,2.40
2019-02-12T19:21:44.230Z,2.90
2019-02-12T19:24:14.242Z,3.67
2019-02-12T19:26:49.814Z,2.87
2019-02-12T19:29:16.065Z,2.83
2019-02-12T19:31:46.028Z,3.37
2019-02-12T19:34:16.097Z,3.67
2019-02-12T19:36:46.104Z,3.43
2019-02-12T19:39:16.145Z,2.93
2019-02-12T19:41:46.195Z,3.23
2019-02-12T19:44:16.683Z,3.40
2019-02-12T19:46:47.785Z,2.87
2019-02-12T19:49:17.908Z,2.87
2019-02-12T19:51:47.873Z,4.33
2019-02-12T19:54:17.849Z,2.73
2019-02-12T19:56:48.606Z,2.57
2019-02-12T19:59:18.477Z,2.57
2019-02-12T20:01:48.372Z,2.60
2019-02-12T20:04:18.777Z,3.03
2019-02-12T20:06:48.821Z,2.73
2019-02-12T20:09:22.014Z,2.53
2019-02-12T20:11:52.159Z,3.07
2019-02-12T20:14:22.080Z,2.87
2019-02-12T20:16:52.208Z,3.40
2019-02-12T20:19:22.018Z,3.00
2019-02-12T20:21:51.893Z,5.67
2019-02-12T20:24:22.513Z,3.17
2019-02-12T20:26:52.741Z,2.80
2019-02-12T20:29:22.835Z,3.37
2019-02-12T20:31:52.631Z,3.03
2019-02-12T20:34:22.457Z,2.80
2019-02-12T20:36:52.165Z,2.80
2019-02-12T20:39:22.018Z,2.43
2019-02-12T20:41:52.144Z,4.67
2019-02-12T20:44:21.816Z,4.03
2019-02-12T20:46:51.754Z,3.30
2019-02-12T20:49:21.493Z,21.90
2019-02-12T20:51:51.169Z,3.03
2019-02-12T20:54:20.978Z,3.53
2019-02-12T20:56:50.673Z,3.93
2019-02-12T20:59:21.207Z,3.90
2019-02-12T21:01:51.385Z,3.73
2019-02-12T21:04:21.098Z,3.90
2019-02-12T21:06:50.709Z,4.67
2019-02-12T21:09:20.594Z,4.60
2019-02-12T21:11:50.300Z,4.40
2019-02-12T21:14:20.191Z,3.87
2019-02-12T21:16:50.153Z,4.73
2019-02-12T21:19:20.100Z,4.77
2019-02-12T21:21:49.689Z,5.10
2019-02-12T21:24:20.108Z,4.80
2019-02-12T21:26:49.776Z,4.97
2019-02-12T21:29:19.872Z,4.53
2019-02-12T21:31:51.135Z,5.90
2019-02-12T21:34:21.053Z,5.10
2019-02-12T21:36:50.995Z,5.30
2019-02-12T21:39:23.285Z,5.13
2019-02-12T21:41:53.011Z,5.97
2019-02-12T21:44:23.063Z,5.90
2019-02-12T21:46:52.884Z,4.43
2019-02-12T21:49:22.902Z,5.73
2019-02-12T21:51:52.794Z,6.40
2019-02-12T21:54:22.550Z,6.80
2019-02-12T21:56:52.328Z,6.13
2019-02-12T21:59:22.266Z,7.10
2019-02-12T22:01:52.102Z,7.97
2019-02-12T22:04:21.805Z,6.67
2019-02-12T22:06:51.517Z,6.83
2019-02-12T22:09:21.338Z,7.03
2019-02-12T22:11:51.111Z,7.73
2019-02-12T22:14:20.960Z,8.27
2019-02-12T22:16:50.826Z,8.80
2019-02-12T22:19:21.301Z,8.30
2019-02-12T22:21:50.888Z,9.40
2019-02-12T22:24:20.799Z,8.80
2019-02-12T22:26:50.517Z,8.03
2019-02-12T22:29:20.236Z,9.33
2019-02-12T22:31:50.274Z,9.50
2019-02-12T22:34:20.051Z,8.90
2019-02-12T22:36:49.742Z,7.80
2019-02-12T22:39:19.763Z,9.67
2019-02-12T22:41:49.355Z,9.53
2019-02-12T22:44:19.039Z,9.50
2019-02-12T22:46:48.892Z,10.27
2019-02-12T22:49:18.756Z,10.50
2019-02-12T22:51:48.413Z,11.97
2019-02-12T22:54:18.190Z,10.70
2019-02-12T22:56:47.852Z,10.83
2019-02-12T22:59:17.604Z,10.93
2019-02-12T23:01:47.827Z,9.90
2019-02-12T23:04:17.766Z,10.43
2019-02-12T23:06:47.397Z,10.20
2019-02-12T23:09:18.443Z,10.83
2019-02-12T23:11:48.141Z,10.50
2019-02-12T23:14:17.849Z,11.60
2019-02-12T23:16:47.670Z,12.43
2019-02-12T23:19:17.469Z,12.17
2019-02-12T23:21:47.197Z,11.17
2019-02-12T23:24:19.135Z,13.10
2019-02-12T23:26:48.927Z,11.73
2019-02-12T23:29:18.503Z,12.10
2019-02-12T23:31:48.325Z,10.70
2019-02-12T23:34:18.159Z,12.20
2019-02-12T23:36:47.761Z,13.47
2019-02-12T23:39:17.704Z,12.63
2019-02-12T23:41:47.442Z,11.83
2019-02-12T23:44:17.133Z,12.27
2019-02-12T23:46:46.881Z,11.37
2019-02-12T23:49:16.579Z,11.40
2019-02-12T23:51:46.471Z,10.80
2019-02-12T23:54:16.476Z,11.27
2019-02-12T23:56:46.281Z,11.77
2019-02-12T23:59:16.143Z,11.70
